Time;durP1;ratioP1;P1;durP2;ratioP2;P2;SDS_P1;SDS_P2;PMS_P1;PMS_P2;Temp;Humidity;BMP_temperature;BMP_pressure;BME280_temperature;BME280_humidity;BME280_pressure;Samples;Min_cycle;Max_cycle;Signal;HPM_P1;HPM_P2
2024/04/15 00:01:53;;;;;;;3.30;1.70;;;12.50;99.90;;;;;;5391891;26;20515;-70
2024/04/15 00:04:19;;;;;;;4.03;1.90;;;12.50;99.90;;;;;;5392016;26;21290;-70
2024/04/15 00:06:47;;;;;;;5.83;1.63;;;12.30;99.90;;;;;;5393425;26;20564;-70
2024/04/15 00:09:13;;;;;;;4.17;2.10;;;12.30;99.90;;;;;;5392754;26;20356;-70
2024/04/15 00:11:41;;;;;;;2.23;2.03;;;12.40;99.90;;;;;;5380604;26;21246;-70
2024/04/15 00:14:07;;;;;;;4.37;2.10;;;12.40;99.90;;;;;;5396960;26;20242;-70
2024/04/15 00:16:38;;;;;;;5.10;2.40;;;12.30;99.90;;;;;;5398922;26;20476;-70
2024/04/15 00:19:06;;;;;;;1.80;1.60;;;12.20;99.90;;;;;;5389570;26;20381;-70
2024/04/15 00:21:35;;;;;;;3.90;3.00;;;12.20;99.90;;;;;;5395180;26;20557;-70
2024/04/15 00:24:02;;;;;;;2.37;2.13;;;12.10;99.90;;;;;;5398574;26;20541;-69
2024/04/15 00:26:30;;;;;;;2.37;1.80;;;12.00;99.90;;;;;;5382663;26;20920;-69
2024/04/15 00:28:56;;;;;;;3.40;2.17;;;11.90;99.90;;;;;;5388237;26;20533;-70
2024/04/15 00:31:24;;;;;;;3.17;2.87;;;11.90;99.90;;;;;;5387490;26;20469;-69
2024/04/15 00:33:50;;;;;;;4.50;2.30;;;12.00;99.90;;;;;;5374886;26;20587;-70
2024/04/15 00:36:21;;;;;;;2.83;2.63;;;11.90;99.90;;;;;;5384852;26;20613;-70
2024/04/15 00:38:47;;;;;;;2.50;1.83;;;11.90;99.90;;;;;;5391524;26;20254;-70
2024/04/15 00:41:16;;;;;;;3.73;1.97;;;11.90;99.90;;;;;;5385832;26;20461;-70
2024/04/15 00:43:41;;;;;;;3.70;2.40;;;11.90;99.90;;;;;;5386618;26;20234;-70
2024/04/15 00:46:11;;;;;;;3.03;1.90;;;11.90;99.90;;;;;;5388983;26;20535;-69
2024/04/15 00:48:37;;;;;;;3.50;1.70;;;11.90;99.90;;;;;;5379562;26;20342;-70
2024/04/15 00:51:06;;;;;;;7.57;2.10;;;12.10;99.90;;;;;;5391099;26;20456;-70
2024/04/15 00:53:35;;;;;;;3.53;2.53;;;12.00;99.90;;;;;;5386082;26;20599;-70
2024/04/15 00:56:06;;;;;;;3.13;2.23;;;12.10;99.90;;;;;;5385997;26;20449;-70
2024/04/15 00:58:33;;;;;;;3.10;2.13;;;12.00;99.90;;;;;;5383025;26;20562;-70
2024/04/15 01:01:03;;;;;;;4.87;2.23;;;12.00;99.90;;;;;;5390023;26;20456;-70
2024/04/15 01:03:29;;;;;;;4.13;2.30;;;11.80;99.90;;;;;;5397045;26;20624;-70
2024/04/15 01:05:58;;;;;;;6.30;2.50;;;11.90;99.90;;;;;;5391514;26;21065;-70
2024/04/15 01:08:23;;;;;;;3.00;1.90;;;11.80;99.90;;;;;;5392390;26;20360;-70
2024/04/15 01:10:54;;;;;;;3.40;1.93;;;11.80;99.90;;;;;;5387083;26;21131;-71
2024/04/15 01:13:20;;;;;;;3.10;2.33;;;11.70;99.90;;;;;;5384920;26;20243;-71
2024/04/15 01:15:49;;;;;;;2.03;1.83;;;11.70;99.90;;;;;;5392867;26;21324;-71
2024/04/15 01:18:15;;;;;;;6.13;2.50;;;11.50;99.90;;;;;;5391208;26;20476;-71
2024/04/15 01:20:43;;;;;;;2.60;2.10;;;11.30;99.90;;;;;;5390904;26;20782;-71
2024/04/15 01:23:13;;;;;;;7.87;3.10;;;11.30;99.90;;;;;;5384924;26;20278;-71
2024/04/15 01:25:44;;;;;;;3.00;1.60;;;11.40;99.90;;;;;;5384937;26;20605;-71
2024/04/15 01:28:12;;;;;;;3.33;2.50;;;11.50;99.90;;;;;;5387521;26;20500;-71
2024/04/15 01:30:40;;;;;;;3.67;2.20;;;11.20;99.90;;;;;;5382956;26;21092;-71
2024/04/15 01:33:07;;;;;;;3.20;2.47;;;11.20;99.90;;;;;;5386702;26;21885;-70
2024/04/15 01:35:35;;;;;;;3.17;2.03;;;11.30;99.90;;;;;;5386299;26;20477;-70
2024/04/15 01:38:02;;;;;;;5.10;3.27;;;11.40;99.90;;;;;;5386698;26;20535;-70
2024/04/15 01:40:30;;;;;;;5.77;3.73;;;11.40;99.90;;;;;;5383403;26;20531;-70
2024/04/15 01:42:59;;;;;;;3.13;2.80;;;11.50;99.90;;;;;;5385217;26;20678;-71
2024/04/15 01:45:27;;;;;;;4.33;3.30;;;11.60;99.90;;;;;;5391310;26;20832;-70
2024/04/15 01:47:53;;;;;;;4.80;3.00;;;11.80;99.90;;;;;;5388275;26;20591;-71
2024/04/15 01:50:22;;;;;;;6.20;2.43;;;11.70;99.90;;;;;;5383431;26;20483;-71
2024/04/15 01:52:48;;;;;;;4.97;2.53;;;11.70;99.90;;;;;;5384722;26;20247;-70
2024/04/15 01:55:16;;;;;;;3.83;3.40;;;11.60;99.90;;;;;;5385628;26;20449;-70
2024/04/15 01:57:42;;;;;;;3.53;3.20;;;11.70;99.90;;;;;;5384773;26;20247;-71
2024/04/15 02:00:14;;;;;;;3.23;2.90;;;11.60;99.90;;;;;;5381554;26;21698;-70
2024/04/15 02:02:40;;;;;;;10.07;3.73;;;11.60;99.90;;;;;;5378999;26;20461;-70
2024/04/15 02:05:09;;;;;;;5.20;3.17;;;11.50;99.90;;;;;;5380072;26;20489;-70
2024/04/15 02:07:35;;;;;;;4.80;3.27;;;11.60;99.90;;;;;;5379612;26;20580;-70
2024/04/15 02:10:03;;;;;;;7.17;4.17;;;11.50;99.90;;;;;;5385741;26;20532;-70
2024/04/15 02:12:30;;;;;;;4.30;3.40;;;11.50;99.90;;;;;;5385074;26;20556;-71
2024/04/15 02:14:59;;;;;;;7.70;3.70;;;11.30;99.90;;;;;;5383452;26;20477;-71
2024/04/15 02:17:27;;;;;;;8.53;3.63;;;11.20;99.90;;;;;;5389915;26;20445;-71
2024/04/15 02:19:56;;;;;;;5.20;4.10;;;11.20;99.90;;;;;;5387394;26;20470;-71
2024/04/15 02:22:21;;;;;;;4.63;4.10;;;11.30;99.90;;;;;;5386847;26;20574;-71
2024/04/15 02:24:53;;;;;;;3.57;3.27;;;11.30;99.90;;;;;;5388715;26;20825;-70
2024/04/15 02:27:19;;;;;;;9.40;3.90;;;11.50;99.90;;;;;;5389344;26;20713;-70
2024/04/15 02:29:47;;;;;;;4.63;3.07;;;11.50;99.90;;;;;;5391767;26;20437;-71
2024/04/15 02:32:13;;;;;;;3.63;3.10;;;11.40;99.90;;;;;;5380702;26;20242;-70
2024/04/15 02:34:44;;;;;;;5.40;4.07;;;11.30;99.90;;;;;;5383014;26;20529;-70
2024/04/15 02:37:10;;;;;;;3.60;3.10;;;11.30;99.90;;;;;;5386614;26;20306;-70
2024/04/15 02:39:38;;;;;;;3.80;3.03;;;11.20;99.90;;;;;;5395787;26;21003;-70
2024/04/15 02:42:04;;;;;;;4.47;4.07;;;11.10;99.90;;;;;;5382256;26;20290;-70
2024/04/15 02:44:33;;;;;;;7.00;3.80;;;11.00;99.90;;;;;;5394161;26;20541;-70
2024/04/15 02:46:59;;;;;;;4.37;3.20;;;10.90;99.90;;;;;;5381144;26;20453;-70
2024/04/15 02:49:27;;;;;;;5.40;4.13;;;11.00;99.90;;;;;;5395942;26;20893;-70
2024/04/15 02:51:55;;;;;;;6.07;3.33;;;10.90;99.90;;;;;;5386884;26;20249;-69
2024/04/15 02:54:24;;;;;;;6.87;4.13;;;10.90;99.90;;;;;;5391875;26;20485;-69
2024/04/15 02:56:50;;;;;;;8.23;3.90;;;10.90;99.90;;;;;;5382148;26;20458;-69
2024/04/15 02:59:18;;;;;;;4.80;3.80;;;11.00;99.90;;;;;;5390299;26;20448;-70
2024/04/15 03:01:44;;;;;;;5.93;3.80;;;11.20;99.90;;;;;;5387082;26;20246;-70
2024/04/15 03:04:12;;;;;;;10.10;4.80;;;11.20;99.90;;;;;;5394476;26;20441;-70
2024/04/15 03:06:38;;;;;;;6.63;4.40;;;11.30;99.90;;;;;;5391042;26;20254;-70
2024/04/15 03:09:10;;;;;;;6.50;4.23;;;11.20;99.90;;;;;;5391650;26;20496;-70
2024/04/15 03:11:36;;;;;;;4.90;4.37;;;11.20;99.90;;;;;;5387430;26;20274;-69
2024/04/15 03:14:04;;;;;;;12.60;6.20;;;11.20;99.90;;;;;;5385605;26;20440;-70
2024/04/15 03:16:30;;;;;;;6.20;3.67;;;11.10;99.90;;;;;;5388636;26;21947;-69
2024/04/15 03:18:58;;;;;;;5.27;4.10;;;11.00;99.90;;;;;;5391462;26;20472;-70
2024/04/15 03:21:24;;;;;;;6.00;5.47;;;10.90;99.90;;;;;;5392680;26;20294;-70
2024/04/15 03:23:53;;;;;;;8.40;3.83;;;10.70;99.90;;;;;;5382850;26;20857;-69
2024/04/15 03:26:24;;;;;;;8.67;4.80;;;10.60;99.90;;;;;;5380931;26;20244;-70
2024/04/15 03:28:49;;;;;;;14.07;5.57;;;10.60;99.90;;;;;;5397664;26;20465;-70
2024/04/15 03:31:18;;;;;;;6.23;4.00;;;10.60;99.90;;;;;;5496663;21;20508;-71
2024/04/15 03:33:44;;;;;;;10.30;4.80;;;10.60;99.90;;;;;;5345494;26;20353;-72
2024/04/15 03:36:12;;;;;;;16.37;4.60;;;10.70;99.90;;;;;;5349712;26;20549;-72
2024/04/15 03:38:41;;;;;;;7.70;5.63;;;10.80;99.90;;;;;;5344288;26;20264;-71
2024/04/15 03:41:09;;;;;;;14.33;5.60;;;11.00;99.90;;;;;;5346714;26;20578;-70
2024/04/15 03:43:38;;;;;;;0.90;0.60;;;11.00;99.90;;;;;;5320907;26;20523;-70
2024/04/15 03:46:09;;;;;;;1.00;0.60;;;11.10;99.90;;;;;;5316737;26;22120;-70
2024/04/15 03:48:35;;;;;;;1.00;0.70;;;11.00;99.90;;;;;;5323175;26;20700;-70
2024/04/15 03:51:03;;;;;;;0.90;0.60;;;10.90;99.90;;;;;;5319444;26;20473;-70
2024/04/15 03:53:30;;;;;;;0.90;0.60;;;11.00;99.90;;;;;;5313577;26;20554;-70
2024/04/15 03:55:58;;;;;;;1.00;0.80;;;10.90;99.90;;;;;;5319396;26;20444;-71
2024/04/15 03:58:24;;;;;;;4.53;1.77;;;10.90;99.90;;;;;;5324643;26;21805;-70
2024/04/15 04:01:01;;;;;;;1.10;1.00;;;10.90;99.90;;;;;;5326787;26;20471;-71
2024/04/15 04:03:27;;;;;;;2.90;1.57;;;10.70;99.90;;;;;;5313206;26;20260;-70
2024/04/15 04:05:56;;;;;;;1.20;1.10;;;10.60;99.90;;;;;;5324344;26;20450;-70
2024/04/15 04:08:22;;;;;;;1.40;1.30;;;10.50;99.90;;;;;;5318173;26;20271;-70
2024/04/15 04:10:51;;;;;;;1.97;1.63;;;10.60;99.90;;;;;;5321318;26;20475;-70
2024/04/15 04:13:16;;;;;;;0.97;0.70;;;10.50;99.90;;;;;;5327766;26;20324;-69
2024/04/15 04:15:45;;;;;;;1.00;0.70;;;10.50;99.90;;;;;;5333554;26;20929;-70
2024/04/15 04:18:14;;;;;;;0.90;0.60;;;10.40;99.90;;;;;;5329785;26;20334;-69
2024/04/15 04:20:42;;;;;;;0.90;0.60;;;10.40;99.90;;;;;;5305603;26;20479;-69
2024/04/15 04:23:08;;;;;;;5.50;5.10;;;10.40;99.90;;;;;;5329059;26;20484;-71
2024/04/15 04:25:36;;;;;;;1.83;1.73;;;10.20;99.90;;;;;;5312334;26;20564;-71
2024/04/15 04:28:03;;;;;;;1.10;1.00;;;10.20;99.90;;;;;;5325226;26;20824;-69
2024/04/15 04:30:31;;;;;;;0.93;0.60;;;10.20;99.90;;;;;;5329345;26;20451;-69
2024/04/15 04:32:57;;;;;;;2.03;1.43;;;10.10;99.90;;;;;;5308078;26;21690;-71
2024/04/15 04:35:28;;;;;;;0.97;0.70;;;10.10;99.90;;;;;;5324416;26;20456;-72
2024/04/15 04:37:54;;;;;;;1.00;0.60;;;10.00;99.90;;;;;;5329378;26;20256;-71
2024/04/15 04:40:23;;;;;;;2.10;2.00;;;10.00;99.90;;;;;;5321193;26;20470;-72
2024/04/15 04:42:49;;;;;;;3.27;2.80;;;10.00;99.90;;;;;;5314056;26;20456;-72
2024/04/15 04:45:17;;;;;;;1.77;1.00;;;10.00;99.90;;;;;;5314767;26;20552;-69
2024/04/15 04:47:43;;;;;;;1.00;0.60;;;10.00;99.90;;;;;;5325084;26;20440;-70
2024/04/15 04:50:12;;;;;;;0.90;0.60;;;10.00;99.90;;;;;;5313934;26;20539;-70
2024/04/15 04:52:40;;;;;;;1.00;0.60;;;10.00;99.90;;;;;;5320002;26;20587;-70
2024/04/15 04:55:09;;;;;;;2.70;1.20;;;10.00;99.90;;;;;;5325411;26;20455;-69
2024/04/15 04:57:35;;;;;;;0.90;0.60;;;10.00;99.90;;;;;;5325929;26;20834;-70
2024/04/15 05:00:03;;;;;;;2.70;2.10;;;9.90;99.90;;;;;;5307049;26;20533;-69
2024/04/15 05:02:29;;;;;;;1.40;1.30;;;9.90;99.90;;;;;;5312693;26;20362;-70
2024/04/15 05:04:59;;;;;;;0.90;0.60;;;9.90;99.90;;;;;;5320609;26;20467;-69
2024/04/15 05:07:25;;;;;;;1.73;1.63;;;9.90;99.90;;;;;;5332109;26;21172;-69
2024/04/15 05:09:56;;;;;;;1.00;0.70;;;10.00;99.90;;;;;;5329124;26;20527;-69
2024/04/15 05:12:21;;;;;;;1.13;1.03;;;10.00;99.90;;;;;;5311663;26;20719;-69
2024/04/15 05:14:50;;;;;;;0.90;0.60;;;10.00;99.90;;;;;;5314689;26;20564;-71
2024/04/15 05:17:17;;;;;;;0.90;0.70;;;10.00;99.90;;;;;;5325728;26;20399;-71
2024/04/15 05:19:45;;;;;;;1.00;0.60;;;10.00;99.90;;;;;;5327882;26;20535;-72
2024/04/15 05:22:11;;;;;;;0.90;0.60;;;10.10;99.90;;;;;;5309380;26;20460;-72
2024/04/15 05:24:39;;;;;;;0.90;0.60;;;10.30;99.90;;;;;;5326266;26;20539;-71
2024/04/15 05:27:08;;;;;;;0.90;0.60;;;10.20;99.90;;;;;;5308784;26;20260;-72
2024/04/15 05:29:37;;;;;;;0.90;0.60;;;10.20;99.90;;;;;;5321777;26;20468;-72
2024/04/15 05:32:03;;;;;;;1.00;0.70;;;10.30;99.90;;;;;;5328391;26;20967;-72
2024/04/15 05:34:33;;;;;;;0.97;0.60;;;10.50;99.90;;;;;;5326121;26;25800;-72
2024/04/15 05:36:59;;;;;;;0.90;0.60;;;10.50;99.90;;;;;;5334704;26;20466;-72
2024/04/15 05:39:27;;;;;;;1.00;0.60;;;10.50;99.90;;;;;;5309549;26;20515;-73
2024/04/15 05:41:53;;;;;;;1.00;0.60;;;10.50;99.90;;;;;;5318436;26;20533;-71
2024/04/15 05:44:24;;;;;;;1.00;0.70;;;10.40;99.90;;;;;;5315444;26;21005;-72
2024/04/15 05:46:51;;;;;;;0.90;0.60;;;10.30;99.90;;;;;;5318505;26;20706;-71
2024/04/15 05:49:20;;;;;;;0.90;0.60;;;10.50;99.90;;;;;;5310658;26;20460;-71
2024/04/15 05:51:46;;;;;;;0.90;0.60;;;10.60;99.90;;;;;;5316043;26;20836;-71
2024/04/15 05:54:15;;;;;;;1.20;1.10;;;10.70;99.90;;;;;;5311072;26;20524;-71
2024/04/15 05:56:41;;;;;;;3.33;3.13;;;11.00;99.90;;;;;;5323272;26;20591;-72
2024/04/15 05:59:09;;;;;;;2.57;2.23;;;11.60;99.90;;;;;;5321400;26;20481;-73
2024/04/15 06:01:38;;;;;;;1.00;0.60;;;11.90;99.90;;;;;;5315314;26;20403;-73
2024/04/15 06:04:08;;;;;;;2.10;1.93;;;11.90;99.90;;;;;;5306442;26;20994;-73
2024/04/15 06:06:33;;;;;;;1.00;0.60;;;12.10;99.90;;;;;;5318574;26;20512;-72
2024/04/15 06:09:02;;;;;;;1.10;1.00;;;12.40;99.90;;;;;;5313278;26;21061;-71
2024/04/15 06:11:27;;;;;;;1.10;0.80;;;12.40;99.90;;;;;;5312104;26;20692;-72
2024/04/15 06:13:56;;;;;;;1.10;1.00;;;12.10;99.90;;;;;;5332223;26;20483;-72
2024/04/15 06:16:22;;;;;;;0.97;0.60;;;11.70;99.90;;;;;;5314712;26;20245;-72
2024/04/15 06:18:53;;;;;;;1.00;0.60;;;11.60;99.90;;;;;;5332521;26;20659;-72
2024/04/15 06:21:20;;;;;;;1.00;0.70;;;11.80;99.90;;;;;;5323987;26;20333;-72
2024/04/15 06:23:48;;;;;;;1.00;0.80;;;11.60;99.90;;;;;;5313411;26;20461;-72
2024/04/15 06:26:14;;;;;;;5.50;2.50;;;11.50;99.90;;;;;;5318095;26;20989;-72
2024/04/15 06:28:42;;;;;;;0.93;0.60;;;11.20;99.90;;;;;;5324748;26;20467;-72
2024/04/15 06:31:09;;;;;;;2.13;1.10;;;11.20;99.90;;;;;;5317429;26;20380;-72
2024/04/15 06:33:37;;;;;;;1.00;0.80;;;11.20;99.90;;;;;;5313601;26;20449;-72
2024/04/15 06:36:06;;;;;;;1.00;0.80;;;10.90;99.90;;;;;;5327383;26;20483;-72
2024/04/15 06:38:35;;;;;;;0.90;0.60;;;10.90;99.90;;;;;;5328390;26;20501;-71
2024/04/15 06:41:00;;;;;;;1.57;1.17;;;11.00;99.90;;;;;;5314987;26;20567;-71
2024/04/15 06:43:30;;;;;;;1.00;0.60;;;11.20;99.90;;;;;;5317578;26;20463;-72
2024/04/15 06:45:56;;;;;;;1.00;0.60;;;11.20;99.90;;;;;;5314389;26;20283;-72
2024/04/15 06:48:24;;;;;;;5.63;3.23;;;11.50;99.90;;;;;;5323515;26;20888;-74
2024/04/15 06:50:50;;;;;;;1.00;0.70;;;11.80;99.90;;;;;;5321093;26;20447;-72
2024/04/15 06:53:21;;;;;;;0.97;0.70;;;12.00;99.90;;;;;;5309674;26;21141;-72
2024/04/15 06:55:47;;;;;;;1.10;0.80;;;12.10;99.90;;;;;;5315509;26;20705;-73
2024/04/15 06:58:15;;;;;;;1.00;0.60;;;12.00;99.90;;;;;;5324267;26;20481;-73
2024/04/15 07:00:41;;;;;;;1.00;0.70;;;11.80;99.90;;;;;;5313782;26;20763;-74
2024/04/15 07:03:09;;;;;;;1.00;0.80;;;11.30;99.90;;;;;;5318145;26;20461;-72
2024/04/15 07:05:35;;;;;;;1.23;1.13;;;11.40;99.90;;;;;;5312850;26;20265;-73
2024/04/15 07:08:04;;;;;;;1.40;1.07;;;11.30;99.90;;;;;;5319114;26;20504;-71
2024/04/15 07:10:32;;;;;;;1.00;0.60;;;11.20;99.90;;;;;;5314370;26;20813;-73
2024/04/15 07:13:01;;;;;;;1.00;0.60;;;11.10;99.90;;;;;;5319095;26;20451;-72
2024/04/15 07:15:27;;;;;;;1.77;1.20;;;10.90;99.90;;;;;;5325650;26;20479;-72
2024/04/15 07:17:56;;;;;;;1.00;0.60;;;10.90;99.90;;;;;;5331770;26;20472;-73
2024/04/15 07:20:22;;;;;;;1.00;0.60;;;11.10;99.90;;;;;;5322562;26;20260;-72
2024/04/15 07:22:50;;;;;;;1.00;0.60;;;11.40;99.90;;;;;;5323863;26;20574;-72
2024/04/15 07:25:16;;;;;;;1.00;0.80;;;11.60;99.90;;;;;;5317546;26;20526;-73
2024/04/15 07:27:48;;;;;;;1.00;0.60;;;11.60;99.90;;;;;;5319017;26;21084;-73
2024/04/15 07:30:14;;;;;;;3.83;3.53;;;11.90;99.90;;;;;;5321642;26;20443;-72
2024/04/15 07:32:44;;;;;;;1.00;0.60;;;12.40;99.90;;;;;;5319616;26;20472;-71
2024/04/15 07:35:10;;;;;;;1.63;1.23;;;12.70;99.90;;;;;;5318042;26;20604;-71
2024/04/15 07:37:38;;;;;;;5.37;3.40;;;12.50;99.90;;;;;;5319116;26;20580;-73
2024/04/15 07:40:05;;;;;;;1.10;0.80;;;12.30;99.90;;;;;;5320214;26;20349;-73
2024/04/15 07:42:34;;;;;;;1.30;1.20;;;12.50;99.90;;;;;;5312200;26;20451;-72
2024/04/15 07:45:03;;;;;;;7.43;2.63;;;13.00;99.90;;;;;;5314915;26;20554;-73
2024/04/15 07:47:31;;;;;;;1.00;0.80;;;13.00;99.90;;;;;;5315974;26;21044;-73
2024/04/15 07:49:57;;;;;;;1.13;0.93;;;12.80;99.90;;;;;;5318938;26;20471;-73
2024/04/15 07:52:25;;;;;;;1.10;0.80;;;13.20;99.90;;;;;;5319326;26;20614;-73
2024/04/15 07:54:51;;;;;;;3.53;1.27;;;14.00;99.90;;;;;;5323474;26;20350;-73
2024/04/15 07:57:20;;;;;;;1.67;1.20;;;14.60;99.90;;;;;;5319414;26;20543;-73
2024/04/15 07:59:46;;;;;;;2.67;2.47;;;14.90;99.90;;;;;;5321786;26;20472;-73
2024/04/15 08:02:18;;;;;;;1.00;0.60;;;15.30;99.90;;;;;;5326959;26;20569;-73
2024/04/15 08:04:46;;;;;;;1.00;0.70;;;15.40;99.90;;;;;;5330225;26;20463;-73
2024/04/15 08:07:12;;;;;;;1.00;0.77;;;15.90;99.90;;;;;;5322635;26;20787;-73
2024/04/15 08:09:40;;;;;;;1.00;0.60;;;15.80;99.90;;;;;;5312419;26;20581;-73
2024/04/15 08:12:07;;;;;;;2.10;1.10;;;16.00;99.90;;;;;;5315126;26;21191;-72
2024/04/15 08:14:35;;;;;;;1.00;0.60;;;16.10;99.90;;;;;;5319675;26;20471;-73
2024/04/15 08:17:01;;;;;;;1.23;1.13;;;16.10;99.90;;;;;;5312453;26;20902;-73
2024/04/15 08:19:32;;;;;;;1.00;0.60;;;15.80;99.90;;;;;;5321557;26;20491;-73
2024/04/15 08:21:58;;;;;;;1.00;0.60;;;16.40;99.90;;;;;;5316876;26;20740;-73
2024/04/15 08:24:26;;;;;;;1.00;0.60;;;17.40;99.90;;;;;;5321707;26;20828;-72
2024/04/15 08:26:52;;;;;;;2.27;2.07;;;17.50;99.90;;;;;;5328903;26;20974;-73
2024/04/15 08:29:20;;;;;;;1.00;0.60;;;17.30;99.90;;;;;;5320340;26;20480;-72
2024/04/15 08:31:46;;;;;;;1.20;1.10;;;16.90;99.90;;;;;;5324167;26;20349;-73
2024/04/15 08:34:15;;;;;;;1.00;0.60;;;16.40;99.90;;;;;;5312063;26;20483;-73
2024/04/15 08:36:43;;;;;;;1.00;0.60;;;16.80;99.90;;;;;;5313074;26;20401;-73
2024/04/15 08:39:12;;;;;;;1.40;1.10;;;16.70;99.90;;;;;;5317210;26;20561;-73
2024/04/15 08:41:47;;;;;;;1.00;0.60;;;16.40;99.90;;;;;;5319380;26;20482;-72
2024/04/15 08:44:19;;;;;;;2.13;0.80;;;15.70;99.90;;;;;;5314952;26;20538;-72
2024/04/15 08:46:48;;;;;;;1.63;0.97;;;15.60;99.90;;;;;;5319535;26;20524;-72
2024/04/15 08:49:17;;;;;;;1.20;0.77;;;15.30;99.90;;;;;;5321484;26;20555;-72
2024/04/15 08:51:45;;;;;;;1.00;0.70;;;15.10;99.90;;;;;;5321208;26;20700;-72
2024/04/15 08:54:14;;;;;;;1.00;0.60;;;14.70;99.90;;;;;;5324583;26;20487;-73
2024/04/15 08:56:44;;;;;;;1.00;0.60;;;14.30;99.90;;;;;;5318484;26;21060;-72
2024/04/15 08:59:17;;;;;;;1.40;1.20;;;14.30;99.90;;;;;;5320447;26;20793;-72
2024/04/15 09:01:43;;;;;;;1.40;1.00;;;14.50;99.90;;;;;;5318748;26;20472;-72
2024/04/15 09:04:12;;;;;;;1.00;0.60;;;14.50;99.90;;;;;;5325071;26;20483;-72
2024/04/15 09:06:38;;;;;;;1.00;0.60;;;14.40;99.90;;;;;;5317460;26;20778;-74
2024/04/15 09:09:10;;;;;;;4.07;1.00;;;15.00;99.90;;;;;;5330024;26;20655;-73
2024/04/15 09:11:36;;;;;;;3.03;1.13;;;15.20;99.90;;;;;;5326180;26;20614;-73
2024/04/15 09:14:04;;;;;;;1.10;0.80;;;15.20;99.90;;;;;;5320525;26;20495;-73
2024/04/15 09:16:30;;;;;;;1.67;0.90;;;15.10;99.90;;;;;;5332442;26;20484;-73
2024/04/15 09:18:58;;;;;;;1.00;0.67;;;15.70;99.90;;;;;;5319136;26;21173;-73
2024/04/15 09:21:24;;;;;;;1.00;0.70;;;16.10;99.90;;;;;;5322367;26;20348;-73
2024/04/15 09:23:53;;;;;;;1.10;0.80;;;15.30;99.90;;;;;;5316577;26;20538;-73
2024/04/15 09:26:21;;;;;;;1.10;1.00;;;15.60;99.90;;;;;;5320362;26;20487;-73
2024/04/15 09:28:50;;;;;;;1.10;0.70;;;16.20;99.90;;;;;;5315252;26;20532;-72
2024/04/15 09:31:16;;;;;;;1.33;0.80;;;15.80;99.90;;;;;;5330646;26;20546;-72
2024/04/15 09:33:44;;;;;;;1.00;0.67;;;15.80;99.90;;;;;;5314347;26;20447;-72
2024/04/15 09:36:10;;;;;;;1.00;0.70;;;16.00;99.90;;;;;;5324326;26;20253;-73
2024/04/15 09:38:41;;;;;;;1.47;1.33;;;16.20;99.90;;;;;;5317801;26;20597;-73
2024/04/15 09:41:10;;;;;;;1.00;0.90;;;16.50;99.90;;;;;;5328160;26;20486;-73
2024/04/15 09:43:44;;;;;;;1.00;0.60;;;16.30;99.90;;;;;;5307531;26;20475;-73
2024/04/15 09:46:10;;;;;;;1.30;0.80;;;16.20;99.90;;;;;;5308899;26;20602;-72
2024/04/15 09:48:41;;;;;;;1.00;0.60;;;16.00;99.90;;;;;;5318100;26;21023;-72
2024/04/15 09:51:18;;;;;;;1.00;0.70;;;15.40;99.90;;;;;;5321283;26;20579;-73
2024/04/15 09:53:50;;;;;;;1.27;1.07;;;15.40;99.90;;;;;;5319930;26;21230;-73
2024/04/15 09:56:23;;;;;;;1.00;0.60;;;15.70;99.90;;;;;;5321297;26;20491;-72
2024/04/15 09:58:56;;;;;;;1.10;0.70;;;15.60;99.90;;;;;;5314227;26;20667;-70
2024/04/15 10:01:27;;;;;;;1.00;0.70;;;15.60;99.90;;;;;;5323578;26;20464;-73
2024/04/15 10:03:57;;;;;;;1.00;0.60;;;15.20;99.90;;;;;;5321223;26;20525;-73
2024/04/15 10:06:30;;;;;;;1.00;0.60;;;15.50;99.90;;;;;;5325052;26;21316;-73
2024/04/15 10:09:00;;;;;;;1.00;0.70;;;15.50;99.90;;;;;;5316106;26;20547;-73
2024/04/15 10:11:27;;;;;;;3.53;0.80;;;15.70;99.90;;;;;;5325877;26;20479;-72
2024/04/15 10:13:59;;;;;;;1.00;0.60;;;16.00;99.90;;;;;;5320693;26;20620;-74
2024/04/15 10:16:26;;;;;;;1.10;0.83;;;15.30;99.90;;;;;;5325612;26;20479;-73
2024/04/15 10:18:55;;;;;;;1.10;0.80;;;15.30;99.90;;;;;;5318480;26;20469;-73
2024/04/15 10:21:21;;;;;;;1.00;0.60;;;15.40;99.90;;;;;;5325217;26;20815;-73
2024/04/15 10:23:50;;;;;;;3.93;1.57;;;16.00;99.90;;;;;;5314586;26;20989;-73
2024/04/15 10:26:16;;;;;;;1.00;0.70;;;16.30;99.90;;;;;;5322682;26;20546;-72
2024/04/15 10:28:44;;;;;;;1.00;0.67;;;16.00;99.90;;;;;;5323923;26;20535;-71
2024/04/15 10:31:15;;;;;;;1.00;0.60;;;16.30;99.90;;;;;;5314134;26;21605;-72
2024/04/15 10:33:51;;;;;;;4.13;1.30;;;16.60;99.90;;;;;;5310160;26;20605;-71
2024/04/15 10:36:17;;;;;;;1.70;1.27;;;17.20;99.90;;;;;;5312131;26;20686;-73
2024/04/15 10:38:51;;;;;;;1.00;0.60;;;17.60;99.90;;;;;;5307860;26;26851;-73
2024/04/15 10:41:21;;;;;;;1.77;0.73;;;17.60;99.90;;;;;;5323096;26;20330;-73
2024/04/15 10:43:50;;;;;;;2.27;1.17;;;18.00;99.90;;;;;;5317043;26;20977;-74
2024/04/15 10:46:19;;;;;;;1.10;0.70;;;17.40;99.90;;;;;;5318029;26;20599;-72
2024/04/15 10:48:47;;;;;;;1.00;0.60;;;16.90;99.90;;;;;;5324098;26;20485;-72
2024/04/15 10:51:13;;;;;;;1.00;0.60;;;17.30;99.90;;;;;;5325275;26;21375;-72
2024/04/15 10:53:43;;;;;;;1.17;0.97;;;18.30;99.90;;;;;;5319588;26;20706;-74
2024/04/15 10:56:10;;;;;;;1.00;0.60;;;18.20;99.90;;;;;;5326254;26;20479;-74
2024/04/15 10:58:40;;;;;;;1.00;0.60;;;17.70;99.90;;;;;;5325407;26;20948;-73
2024/04/15 11:01:06;;;;;;;1.00;0.70;;;18.10;99.90;;;;;;5316757;26;20508;-73
2024/04/15 11:03:37;;;;;;;1.00;0.70;;;17.70;99.90;;;;;;5316232;26;20587;-73
2024/04/15 11:06:03;;;;;;;1.27;1.17;;;17.30;99.90;;;;;;5320268;26;20525;-74
2024/04/15 11:08:32;;;;;;;16.80;1.63;;;17.60;99.90;;;;;;5327564;26;20483;-71
2024/04/15 11:10:58;;;;;;;1.00;0.60;;;17.90;99.90;;;;;;5317036;26;20553;-73
2024/04/15 11:13:27;;;;;;;1.10;0.73;;;17.80;99.90;;;;;;5330622;26;20478;-72
2024/04/15 11:15:54;;;;;;;1.37;1.00;;;17.40;99.90;;;;;;5326511;26;20331;-72
2024/04/15 11:18:22;;;;;;;1.10;0.70;;;16.50;99.90;;;;;;5325129;26;20939;-72
2024/04/15 11:20:57;;;;;;;14.40;1.37;;;15.80;99.90;;;;;;5322124;26;20524;-73
2024/04/15 11:23:26;;;;;;;2.80;1.63;;;15.80;99.90;;;;;;5327866;26;20474;-72
2024/04/15 11:25:54;;;;;;;1.00;0.60;;;15.90;99.90;;;;;;5325348;26;20590;-72
2024/04/15 11:28:23;;;;;;;2.27;1.10;;;16.10;99.90;;;;;;5325784;26;20475;-73
2024/04/15 11:30:49;;;;;;;1.10;0.77;;;15.90;99.90;;;;;;5324222;26;20495;-71
2024/04/15 11:33:19;;;;;;;1.53;0.80;;;15.80;99.90;;;;;;5317844;26;20491;-72
2024/04/15 11:35:46;;;;;;;1.60;0.70;;;16.00;99.90;;;;;;5325051;26;20479;-73
2024/04/15 11:38:20;;;;;;;1.00;0.60;;;16.20;99.90;;;;;;5314085;26;20536;-73
2024/04/15 11:40:46;;;;;;;1.73;0.80;;;16.70;99.90;;;;;;5312869;26;20488;-72
2024/04/15 11:43:14;;;;;;;1.00;0.60;;;17.10;99.90;;;;;;5322731;26;21045;-73
2024/04/15 11:45:49;;;;;;;2.40;1.47;;;16.90;99.90;;;;;;5328349;26;20582;-72
2024/04/15 11:48:18;;;;;;;1.20;0.80;;;16.70;99.90;;;;;;5315133;26;20586;-73
2024/04/15 11:50:44;;;;;;;7.23;1.23;;;17.10;99.90;;;;;;5313588;26;20476;-72
2024/04/15 11:53:13;;;;;;;2.40;0.90;;;17.30;99.40;;;;;;5326129;26;20583;-72
2024/04/15 11:55:42;;;;;;;1.10;0.80;;;17.10;99.50;;;;;;5319763;26;20287;-72
2024/04/15 11:58:10;;;;;;;1.10;0.70;;;16.90;99.40;;;;;;5328759;26;21089;-72
2024/04/15 12:00:36;;;;;;;2.50;2.30;;;16.70;99.30;;;;;;5328236;26;20484;-73
2024/04/15 12:03:05;;;;;;;14.50;2.20;;;16.40;99.90;;;;;;5330234;26;20520;-72
2024/04/15 12:05:32;;;;;;;1.70;1.33;;;16.50;99.90;;;;;;5319916;26;20526;-73
2024/04/15 12:08:01;;;;;;;1.10;0.80;;;17.00;99.90;;;;;;5330134;26;20471;-72
2024/04/15 12:10:27;;;;;;;7.23;1.70;;;17.00;99.40;;;;;;5291475;26;20475;-72
2024/04/15 12:12:59;;;;;;;1.00;0.67;;;16.40;99.90;;;;;;5324844;26;20511;-72
2024/04/15 12:15:24;;;;;;;1.00;0.60;;;16.30;99.90;;;;;;5332451;26;20551;-72
2024/04/15 12:17:53;;;;;;;0.93;0.60;;;16.50;99.90;;;;;;5329448;26;20477;-72
2024/04/15 12:20:19;;;;;;;4.03;1.47;;;16.80;99.70;;;;;;5330353;26;20245;-73
2024/04/15 12:22:47;;;;;;;1.00;0.60;;;16.20;98.50;;;;;;5321151;26;20527;-73
2024/04/15 12:25:14;;;;;;;2.70;1.23;;;16.30;99.90;;;;;;5335917;26;20366;-72
2024/04/15 12:27:45;;;;;;;1.00;0.60;;;16.40;99.90;;;;;;5343878;26;20470;-72
2024/04/15 12:30:14;;;;;;;1.20;0.80;;;16.70;99.90;;;;;;5330261;26;20883;-73
2024/04/15 12:32:43;;;;;;;1.27;0.70;;;16.80;99.90;;;;;;5333159;26;20479;-71
2024/04/15 12:35:10;;;;;;;1.10;0.70;;;16.50;99.80;;;;;;5324494;26;20609;-72
2024/04/15 12:37:38;;;;;;;2.07;1.00;;;16.00;99.90;;;;;;5323263;26;20535;-73
2024/04/15 12:40:07;;;;;;;1.00;0.60;;;15.40;99.90;;;;;;5320532;26;21218;-73
2024/04/15 12:42:36;;;;;;;1.00;0.60;;;15.30;99.90;;;;;;5325267;26;20847;-73
2024/04/15 12:45:02;;;;;;;1.07;0.77;;;15.40;99.90;;;;;;5327052;26;20996;-72
2024/04/15 12:47:33;;;;;;;1.00;0.60;;;15.40;99.90;;;;;;5330352;26;20622;-72
2024/04/15 12:49:59;;;;;;;1.70;1.37;;;14.80;99.90;;;;;;5321450;26;20666;-72